Estación Meteorológica Peña el Pijo (Robertgarden) [ 07/19/24 12:56:05 CEST ]

Fecha Hora Presion(HPa) Temp (°C) Humedad % Rocio (°C) Viento ( m/s) Direccion Lluvia 1Hora(mm) Lluvia 24H(mm) LLuvia Total(mm)
2012-Sep-21 01:01:19 1013.400 14.5 73 9.7         178.19
2012-Sep-21 02:01:13 1013.300 13.3 73 8.5         178.19
2012-Sep-21 03:09:04 1013.000 11.2 75 6.9         178.19
2012-Sep-21 04:01:12 1012.400 10.3 78 6.6         178.19
2012-Sep-21 05:01:13 1011.900 9.6 80 6.3         178.19
2012-Sep-21 06:01:18 1011.500 9.3 83 6.5         178.19
2012-Sep-21 07:01:13 1011.400 9.2 84 6.6         178.19
2012-Sep-21 08:01:14 1011.800 9.1 85 6.7         178.19
2012-Sep-21 09:01:17 1012.100 10.7 86 8.4         178.19
2012-Sep-21 10:01:13 1012.400 17.3 67 11.1         178.19
2012-Sep-21 11:01:18 1012.300 21.9 56 12.7         178.19
2012-Sep-21 12:01:14 1012.300 22.4 54 12.6         178.19
2012-Sep-21 13:01:12 1011.800 26.2 47 14.0         178.19
2012-Sep-21 14:01:16 1011.500 28.6 40 13.7         178.19
2012-Sep-21 15:01:16 1011.000 28.4 40 13.6         178.19
2012-Sep-21 16:01:14 1010.400 30.9 37 14.5 1.1 NE     178.19
2012-Sep-21 17:01:16 1010.200 30.9 37 14.5         178.19
2012-Sep-21 18:01:14 1010.000 30.1 38 14.2         178.19
2012-Sep-21 19:01:13 1010.200 26.9 45 13.9 0.7 ENE     178.19
2012-Sep-21 20:01:13 1010.600 24.3 51 13.6         178.19
2012-Sep-21 21:01:22 1011.300 21.3 59 13.0         178.19
2012-Sep-21 22:01:17 1011.700 18.6 67 12.3         178.19
2012-Sep-21 23:01:17 1011.900 16.8 72 11.7         178.19

Temperatura Máxima:30°    Temperatura Mínima:
Presión Máxima:1013.400 Hpa    Presión Mínima:1010.000 Hpa


Volver